METAR AND TAF INFORMATION
METAR FOR KFCI
ADDS - METARS form results

(0244 UTC 17 May 2021)
Data provider http://aviationweather.gov/metar/data/
 
METAR text: KFCI 170156Z AUTO 00000KT 10SM BKN065 OVC095 15/12 A3025 RMK AO2 SLP254 T01500117 TSNO
Conditions at: KFCI (RICHMOND/CHESTER, VA, US) observed 0156 UTC 17 May 2021
Temperature: 15.0°C (59°F)
Dewpoint: 11.7°C (53°F) [RH = 81%]
Pressure (altimeter): 30.25 inches Hg (1024.5 mb)
[Sea-level pressure: 1025.4 mb]
Winds: calm
Visibility: 10 or more miles (16+ km)
Ceiling: 6500 feet AGL
Clouds: broken clouds at 6500 feet AGL
overcast cloud deck at 9500 feet AGL
Weather: automated observation with no human augmentation;
there may or may not be significant weather present at this time

 AIRPORT MAP

 RUNWAY INFORMATION
Runway 15 Runway length 5500 ft Runway width 100 ft
Runway elevation 237 ft Runway displaced threshold 0 ft Runway heading 141
Runway 33 Runway length 5500 ft Runway width 100 ft
Runway elevation 199 ft Runway displaced threshold 0 ft Runway heading 321

 AIRPORT FREQUENCIES
Type APP Name POTOMAC AP Frequency 134.7 MHZ
Type AWOS Name AWOS 3 Frequency 128.625 MHZ
Type CLD Name POTOMAC CL Frequency 124.6 MHZ
Type DEP Name POTOMAC DE Frequency 134.7 MHZ
Type RDO Name LEESBURG R Frequency 113.3 MHZ
Type UNIC Name CTAF/UNICO Frequency 123.05 MHZ

 AIRPORT NEAR NAVIGATION AIDS

-